VMMC/MFM METAR and TAF weather

Enter ICAO airport designator
Station Type Date Time Source
VMMC METAR 2022/06/27 09:00 UTC NOAA

VMMC 270900Z 18008KT 9999 FEW015 SCT025 30/26 Q1005 NOSIG


Station Type Date Time Source
VMMC Decoded METAR 2022/06/27 09:00 UTC NOAA

Taipa, Macau (VMMC) 22-10N 113-34E
Jun 27, 2022 - 05:00 AM EDT / 2022.06.27 0900 UTC
Wind: from the S (180 degrees) at 9 MPH (8 KT):0
Visibility: greater than 7 mile(s):0
Sky conditions: partly cloudy
Temperature: 86 F (30 C)
Heat index: 99.3 F (37.4 C):1
Dew Point: 78 F (26 C)
Relative Humidity: 79%
Pressure (altimeter): 29.68 in. Hg (1005 hPa)
ob: VMMC 270900Z 18008KT 9999 FEW015 SCT025 30/26 Q1005 NOSIG
cycle: 9

Station Type Date Time Source
VMMC TAF 2022/06/27 06:57 UTC NOAA

TAF COR TAF COR VMMC 270500Z 2706/2812 20008KT 9999 FEW015
TEMPO 2706/2712 4500 SHRA

Example: see airport list